sensor_id;sensor_type;location;lat;lon;timestamp;P1;durP1;ratioP1;P2;durP2;ratioP2
30247;SDS011;17063;50.892;4.702;2022-08-19T00:01:59;7.40;;;6.07;;
30247;SDS011;17063;50.892;4.702;2022-08-19T00:04:27;7.40;;;6.67;;
30247;SDS011;17063;50.892;4.702;2022-08-19T00:06:56;7.80;;;7.00;;
30247;SDS011;17063;50.892;4.702;2022-08-19T00:09:25;10.90;;;7.10;;
30247;SDS011;17063;50.892;4.702;2022-08-19T00:11:53;9.63;;;8.07;;
30247;SDS011;17063;50.892;4.702;2022-08-19T00:14:22;9.93;;;8.03;;
30247;SDS011;17063;50.892;4.702;2022-08-19T00:16:51;12.83;;;8.00;;
30247;SDS011;17063;50.892;4.702;2022-08-19T00:19:21;10.00;;;7.73;;
30247;SDS011;17063;50.892;4.702;2022-08-19T00:21:48;8.90;;;7.63;;
30247;SDS011;17063;50.892;4.702;2022-08-19T00:24:15;11.87;;;8.67;;
30247;SDS011;17063;50.892;4.702;2022-08-19T00:26:43;11.93;;;9.30;;
30247;SDS011;17063;50.892;4.702;2022-08-19T00:29:10;14.70;;;12.10;;
30247;SDS011;17063;50.892;4.702;2022-08-19T00:31:38;16.07;;;11.10;;
30247;SDS011;17063;50.892;4.702;2022-08-19T00:34:06;15.40;;;11.93;;
30247;SDS011;17063;50.892;4.702;2022-08-19T00:36:33;14.83;;;12.10;;
30247;SDS011;17063;50.892;4.702;2022-08-19T00:39:00;17.83;;;13.50;;
30247;SDS011;17063;50.892;4.702;2022-08-19T00:41:27;16.17;;;11.90;;
30247;SDS011;17063;50.892;4.702;2022-08-19T00:46:31;19.13;;;13.17;;
30247;SDS011;17063;50.892;4.702;2022-08-19T00:48:59;19.37;;;13.10;;
30247;SDS011;17063;50.892;4.702;2022-08-19T00:51:27;19.37;;;13.80;;
30247;SDS011;17063;50.892;4.702;2022-08-19T00:53:55;20.03;;;14.53;;
30247;SDS011;17063;50.892;4.702;2022-08-19T00:56:24;21.00;;;15.37;;
30247;SDS011;17063;50.892;4.702;2022-08-19T00:58:54;20.23;;;15.63;;
30247;SDS011;17063;50.892;4.702;2022-08-19T01:01:21;25.23;;;17.50;;
30247;SDS011;17063;50.892;4.702;2022-08-19T01:03:48;28.07;;;19.33;;
30247;SDS011;17063;50.892;4.702;2022-08-19T01:06:23;30.20;;;19.43;;
30247;SDS011;17063;50.892;4.702;2022-08-19T01:08:51;27.97;;;19.13;;
30247;SDS011;17063;50.892;4.702;2022-08-19T01:11:18;30.40;;;19.80;;
30247;SDS011;17063;50.892;4.702;2022-08-19T01:13:45;27.70;;;20.53;;
30247;SDS011;17063;50.892;4.702;2022-08-19T01:16:16;34.60;;;22.10;;
30247;SDS011;17063;50.892;4.702;2022-08-19T01:18:44;36.60;;;23.40;;
30247;SDS011;17063;50.892;4.702;2022-08-19T01:21:28;33.23;;;22.40;;
30247;SDS011;17063;50.892;4.702;2022-08-19T01:24:00;30.73;;;21.30;;
30247;SDS011;17063;50.892;4.702;2022-08-19T01:26:27;31.47;;;22.77;;
30247;SDS011;17063;50.892;4.702;2022-08-19T01:28:57;33.23;;;22.33;;
30247;SDS011;17063;50.892;4.702;2022-08-19T01:31:27;32.23;;;21.83;;
30247;SDS011;17063;50.892;4.702;2022-08-19T01:33:58;37.03;;;24.40;;
30247;SDS011;17063;50.892;4.702;2022-08-19T01:39:05;32.97;;;24.30;;
30247;SDS011;17063;50.892;4.702;2022-08-19T01:41:33;35.37;;;24.17;;
30247;SDS011;17063;50.892;4.702;2022-08-19T01:44:00;34.57;;;23.63;;
30247;SDS011;17063;50.892;4.702;2022-08-19T01:46:44;33.40;;;23.67;;
30247;SDS011;17063;50.892;4.702;2022-08-19T01:49:13;33.43;;;24.07;;
30247;SDS011;17063;50.892;4.702;2022-08-19T01:51:41;42.87;;;25.97;;
30247;SDS011;17063;50.892;4.702;2022-08-19T01:54:09;36.23;;;24.57;;
30247;SDS011;17063;50.892;4.702;2022-08-19T01:56:37;39.07;;;25.73;;
30247;SDS011;17063;50.892;4.702;2022-08-19T01:59:08;38.30;;;25.77;;
30247;SDS011;17063;50.892;4.702;2022-08-19T02:01:41;37.60;;;25.80;;
30247;SDS011;17063;50.892;4.702;2022-08-19T02:04:09;40.10;;;25.97;;
30247;SDS011;17063;50.892;4.702;2022-08-19T02:06:36;41.00;;;27.30;;
30247;SDS011;17063;50.892;4.702;2022-08-19T02:09:03;39.60;;;25.70;;
30247;SDS011;17063;50.892;4.702;2022-08-19T02:11:32;40.13;;;26.93;;
30247;SDS011;17063;50.892;4.702;2022-08-19T02:14:01;40.23;;;26.07;;
30247;SDS011;17063;50.892;4.702;2022-08-19T02:16:29;43.13;;;28.33;;
30247;SDS011;17063;50.892;4.702;2022-08-19T02:18:57;40.70;;;27.10;;
30247;SDS011;17063;50.892;4.702;2022-08-19T02:21:27;45.30;;;28.67;;
30247;SDS011;17063;50.892;4.702;2022-08-19T02:23:54;43.60;;;29.13;;
30247;SDS011;17063;50.892;4.702;2022-08-19T02:26:21;43.13;;;27.47;;
30247;SDS011;17063;50.892;4.702;2022-08-19T02:28:48;45.93;;;28.60;;
30247;SDS011;17063;50.892;4.702;2022-08-19T02:31:17;40.23;;;26.00;;
30247;SDS011;17063;50.892;4.702;2022-08-19T02:33:46;40.73;;;25.30;;
30247;SDS011;17063;50.892;4.702;2022-08-19T02:36:14;37.67;;;24.87;;
30247;SDS011;17063;50.892;4.702;2022-08-19T02:38:46;32.93;;;23.10;;
30247;SDS011;17063;50.892;4.702;2022-08-19T02:41:31;33.93;;;23.07;;
30247;SDS011;17063;50.892;4.702;2022-08-19T02:43:59;33.40;;;22.90;;
30247;SDS011;17063;50.892;4.702;2022-08-19T02:46:47;35.67;;;23.83;;
30247;SDS011;17063;50.892;4.702;2022-08-19T02:49:17;32.87;;;21.93;;
30247;SDS011;17063;50.892;4.702;2022-08-19T02:51:45;36.07;;;24.47;;
30247;SDS011;17063;50.892;4.702;2022-08-19T02:54:12;36.70;;;23.47;;
30247;SDS011;17063;50.892;4.702;2022-08-19T02:56:40;35.33;;;22.23;;
30247;SDS011;17063;50.892;4.702;2022-08-19T02:59:08;35.73;;;23.47;;
30247;SDS011;17063;50.892;4.702;2022-08-19T03:01:37;35.07;;;23.33;;
30247;SDS011;17063;50.892;4.702;2022-08-19T03:04:08;34.03;;;22.63;;
30247;SDS011;17063;50.892;4.702;2022-08-19T03:06:37;32.27;;;21.40;;
30247;SDS011;17063;50.892;4.702;2022-08-19T03:09:08;35.23;;;22.50;;
30247;SDS011;17063;50.892;4.702;2022-08-19T03:11:35;36.77;;;22.80;;
30247;SDS011;17063;50.892;4.702;2022-08-19T03:14:02;31.57;;;20.93;;
30247;SDS011;17063;50.892;4.702;2022-08-19T03:16:32;30.60;;;20.97;;
30247;SDS011;17063;50.892;4.702;2022-08-19T03:19:01;32.60;;;20.87;;
30247;SDS011;17063;50.892;4.702;2022-08-19T03:21:30;31.77;;;20.97;;
30247;SDS011;17063;50.892;4.702;2022-08-19T03:23:59;32.53;;;20.43;;
30247;SDS011;17063;50.892;4.702;2022-08-19T03:26:30;32.20;;;19.93;;
30247;SDS011;17063;50.892;4.702;2022-08-19T03:29:00;29.70;;;18.33;;
30247;SDS011;17063;50.892;4.702;2022-08-19T03:31:31;27.33;;;20.13;;
30247;SDS011;17063;50.892;4.702;2022-08-19T03:34:18;30.97;;;20.40;;
30247;SDS011;17063;50.892;4.702;2022-08-19T03:36:46;28.47;;;19.00;;
30247;SDS011;17063;50.892;4.702;2022-08-19T03:39:13;27.60;;;19.90;;
30247;SDS011;17063;50.892;4.702;2022-08-19T03:41:41;27.00;;;18.70;;
30247;SDS011;17063;50.892;4.702;2022-08-19T03:44:19;28.60;;;19.80;;
30247;SDS011;17063;50.892;4.702;2022-08-19T03:46:52;32.37;;;20.97;;
30247;SDS011;17063;50.892;4.702;2022-08-19T03:49:22;30.20;;;21.30;;
30247;SDS011;17063;50.892;4.702;2022-08-19T03:51:55;31.10;;;20.60;;
30247;SDS011;17063;50.892;4.702;2022-08-19T03:54:24;32.67;;;21.03;;
30247;SDS011;17063;50.892;4.702;2022-08-19T03:56:52;28.87;;;19.77;;
30247;SDS011;17063;50.892;4.702;2022-08-19T03:59:24;31.53;;;21.10;;
30247;SDS011;17063;50.892;4.702;2022-08-19T04:01:57;27.77;;;19.40;;
30247;SDS011;17063;50.892;4.702;2022-08-19T04:04:25;29.03;;;19.20;;
30247;SDS011;17063;50.892;4.702;2022-08-19T04:06:54;31.10;;;19.37;;
30247;SDS011;17063;50.892;4.702;2022-08-19T04:09:22;27.97;;;20.23;;
30247;SDS011;17063;50.892;4.702;2022-08-19T04:11:50;27.57;;;19.53;;
30247;SDS011;17063;50.892;4.702;2022-08-19T04:14:23;27.70;;;18.27;;
30247;SDS011;17063;50.892;4.702;2022-08-19T04:16:55;28.67;;;19.40;;
30247;SDS011;17063;50.892;4.702;2022-08-19T04:19:22;27.60;;;18.60;;
30247;SDS011;17063;50.892;4.702;2022-08-19T04:21:50;31.47;;;19.93;;
30247;SDS011;17063;50.892;4.702;2022-08-19T04:24:19;27.23;;;18.70;;
30247;SDS011;17063;50.892;4.702;2022-08-19T04:26:46;26.27;;;18.50;;
30247;SDS011;17063;50.892;4.702;2022-08-19T04:29:16;27.50;;;19.23;;
30247;SDS011;17063;50.892;4.702;2022-08-19T04:31:51;27.97;;;19.03;;
30247;SDS011;17063;50.892;4.702;2022-08-19T04:34:21;29.07;;;19.83;;
30247;SDS011;17063;50.892;4.702;2022-08-19T04:36:50;26.23;;;18.83;;
30247;SDS011;17063;50.892;4.702;2022-08-19T04:39:19;28.63;;;18.87;;
30247;SDS011;17063;50.892;4.702;2022-08-19T04:41:48;29.67;;;18.97;;
30247;SDS011;17063;50.892;4.702;2022-08-19T04:44:35;27.30;;;18.17;;
30247;SDS011;17063;50.892;4.702;2022-08-19T04:47:11;27.23;;;18.43;;
30247;SDS011;17063;50.892;4.702;2022-08-19T04:49:38;29.53;;;18.83;;
30247;SDS011;17063;50.892;4.702;2022-08-19T04:52:05;27.10;;;18.60;;
30247;SDS011;17063;50.892;4.702;2022-08-19T04:54:32;27.67;;;18.77;;
30247;SDS011;17063;50.892;4.702;2022-08-19T04:57:05;27.10;;;18.20;;
30247;SDS011;17063;50.892;4.702;2022-08-19T04:59:38;28.00;;;17.53;;
30247;SDS011;17063;50.892;4.702;2022-08-19T05:02:06;26.23;;;17.47;;
30247;SDS011;17063;50.892;4.702;2022-08-19T05:04:34;28.07;;;17.70;;
30247;SDS011;17063;50.892;4.702;2022-08-19T05:07:01;28.60;;;18.17;;
30247;SDS011;17063;50.892;4.702;2022-08-19T05:09:28;25.43;;;17.37;;
30247;SDS011;17063;50.892;4.702;2022-08-19T05:12:16;29.23;;;17.77;;
30247;SDS011;17063;50.892;4.702;2022-08-19T05:14:44;28.77;;;17.80;;
30247;SDS011;17063;50.892;4.702;2022-08-19T05:17:14;26.17;;;18.13;;
30247;SDS011;17063;50.892;4.702;2022-08-19T05:20:01;24.23;;;16.80;;
30247;SDS011;17063;50.892;4.702;2022-08-19T05:22:47;27.20;;;17.83;;
30247;SDS011;17063;50.892;4.702;2022-08-19T05:25:18;30.17;;;18.00;;
30247;SDS011;17063;50.892;4.702;2022-08-19T05:27:46;46.13;;;18.03;;
30247;SDS011;17063;50.892;4.702;2022-08-19T05:30:13;30.33;;;17.20;;
30247;SDS011;17063;50.892;4.702;2022-08-19T05:32:41;28.83;;;16.00;;
30247;SDS011;17063;50.892;4.702;2022-08-19T05:35:08;28.53;;;16.73;;
30247;SDS011;17063;50.892;4.702;2022-08-19T05:37:36;26.33;;;16.57;;
30247;SDS011;17063;50.892;4.702;2022-08-19T05:40:03;25.77;;;17.17;;
30247;SDS011;17063;50.892;4.702;2022-08-19T05:42:30;28.67;;;16.13;;
30247;SDS011;17063;50.892;4.702;2022-08-19T05:44:58;25.00;;;15.27;;
30247;SDS011;17063;50.892;4.702;2022-08-19T05:47:24;24.93;;;15.07;;
30247;SDS011;17063;50.892;4.702;2022-08-19T05:49:51;25.53;;;15.30;;
30247;SDS011;17063;50.892;4.702;2022-08-19T05:52:18;24.10;;;14.17;;
30247;SDS011;17063;50.892;4.702;2022-08-19T05:54:51;23.23;;;14.07;;
30247;SDS011;17063;50.892;4.702;2022-08-19T05:57:18;20.87;;;14.30;;
30247;SDS011;17063;50.892;4.702;2022-08-19T05:59:45;23.20;;;14.20;;
30247;SDS011;17063;50.892;4.702;2022-08-19T06:02:18;25.80;;;13.63;;
30247;SDS011;17063;50.892;4.702;2022-08-19T06:04:45;24.40;;;14.10;;
30247;SDS011;17063;50.892;4.702;2022-08-19T06:07:12;23.83;;;13.93;;
30247;SDS011;17063;50.892;4.702;2022-08-19T06:09:39;22.87;;;13.23;;
30247;SDS011;17063;50.892;4.702;2022-08-19T06:12:19;20.83;;;14.07;;
30247;SDS011;17063;50.892;4.702;2022-08-19T06:14:46;23.63;;;13.67;;
30247;SDS011;17063;50.892;4.702;2022-08-19T06:17:26;29.50;;;14.67;;
30247;SDS011;17063;50.892;4.702;2022-08-19T06:19:56;22.43;;;13.37;;
30247;SDS011;17063;50.892;4.702;2022-08-19T06:22:22;21.23;;;13.90;;
30247;SDS011;17063;50.892;4.702;2022-08-19T06:24:49;21.73;;;14.30;;
30247;SDS011;17063;50.892;4.702;2022-08-19T06:27:19;23.73;;;14.67;;
30247;SDS011;17063;50.892;4.702;2022-08-19T06:29:46;23.17;;;13.23;;
30247;SDS011;17063;50.892;4.702;2022-08-19T06:32:14;23.87;;;14.53;;
30247;SDS011;17063;50.892;4.702;2022-08-19T06:34:42;26.40;;;15.40;;
30247;SDS011;17063;50.892;4.702;2022-08-19T06:37:11;23.07;;;13.83;;
30247;SDS011;17063;50.892;4.702;2022-08-19T06:39:42;22.27;;;14.13;;
30247;SDS011;17063;50.892;4.702;2022-08-19T06:42:10;24.00;;;12.63;;
30247;SDS011;17063;50.892;4.702;2022-08-19T06:44:40;20.30;;;13.47;;
30247;SDS011;17063;50.892;4.702;2022-08-19T06:47:14;23.80;;;12.97;;
30247;SDS011;17063;50.892;4.702;2022-08-19T06:49:54;23.33;;;13.50;;
30247;SDS011;17063;50.892;4.702;2022-08-19T06:52:32;25.70;;;13.30;;
30247;SDS011;17063;50.892;4.702;2022-08-19T06:55:02;22.90;;;12.77;;
30247;SDS011;17063;50.892;4.702;2022-08-19T06:57:32;22.33;;;13.83;;
30247;SDS011;17063;50.892;4.702;2022-08-19T07:00:00;20.77;;;12.03;;
30247;SDS011;17063;50.892;4.702;2022-08-19T07:02:27;21.60;;;11.63;;
30247;SDS011;17063;50.892;4.702;2022-08-19T07:04:54;20.57;;;12.60;;
30247;SDS011;17063;50.892;4.702;2022-08-19T07:07:24;20.33;;;12.30;;
30247;SDS011;17063;50.892;4.702;2022-08-19T07:09:51;18.57;;;12.30;;
30247;SDS011;17063;50.892;4.702;2022-08-19T07:12:31;20.50;;;12.07;;
30247;SDS011;17063;50.892;4.702;2022-08-19T07:15:04;16.70;;;11.37;;
30247;SDS011;17063;50.892;4.702;2022-08-19T07:17:37;19.40;;;11.23;;
30247;SDS011;17063;50.892;4.702;2022-08-19T07:20:07;15.40;;;10.20;;
30247;SDS011;17063;50.892;4.702;2022-08-19T07:22:36;16.67;;;9.77;;
30247;SDS011;17063;50.892;4.702;2022-08-19T07:25:05;18.90;;;10.30;;
30247;SDS011;17063;50.892;4.702;2022-08-19T07:27:33;16.97;;;8.57;;
30247;SDS011;17063;50.892;4.702;2022-08-19T07:30:05;18.97;;;8.10;;
30247;SDS011;17063;50.892;4.702;2022-08-19T07:32:37;17.77;;;7.73;;
30247;SDS011;17063;50.892;4.702;2022-08-19T07:35:04;12.80;;;7.50;;
30247;SDS011;17063;50.892;4.702;2022-08-19T07:37:32;11.47;;;6.80;;
30247;SDS011;17063;50.892;4.702;2022-08-19T07:40:01;12.07;;;6.40;;
30247;SDS011;17063;50.892;4.702;2022-08-19T07:42:30;8.90;;;5.27;;
30247;SDS011;17063;50.892;4.702;2022-08-19T07:44:57;13.57;;;5.77;;
30247;SDS011;17063;50.892;4.702;2022-08-19T07:47:25;5.50;;;4.40;;
30247;SDS011;17063;50.892;4.702;2022-08-19T07:50:12;9.70;;;4.37;;
30247;SDS011;17063;50.892;4.702;2022-08-19T07:52:42;8.30;;;5.07;;
30247;SDS011;17063;50.892;4.702;2022-08-19T07:55:17;7.57;;;4.07;;
30247;SDS011;17063;50.892;4.702;2022-08-19T07:58:06;8.13;;;3.80;;
30247;SDS011;17063;50.892;4.702;2022-08-19T08:00:33;7.60;;;3.07;;
30247;SDS011;17063;50.892;4.702;2022-08-19T08:03:02;10.03;;;3.93;;
30247;SDS011;17063;50.892;4.702;2022-08-19T08:05:29;6.97;;;3.23;;
30247;SDS011;17063;50.892;4.702;2022-08-19T08:08:14;5.30;;;3.33;;
30247;SDS011;17063;50.892;4.702;2022-08-19T08:11:02;7.00;;;3.07;;
30247;SDS011;17063;50.892;4.702;2022-08-19T08:13:34;15.13;;;3.30;;
30247;SDS011;17063;50.892;4.702;2022-08-19T08:16:04;7.97;;;3.30;;
30247;SDS011;17063;50.892;4.702;2022-08-19T08:18:35;5.77;;;3.20;;
30247;SDS011;17063;50.892;4.702;2022-08-19T08:21:07;5.77;;;3.30;;
30247;SDS011;17063;50.892;4.702;2022-08-19T08:23:35;6.37;;;3.00;;
30247;SDS011;17063;50.892;4.702;2022-08-19T08:26:05;6.27;;;3.30;;
30247;SDS011;17063;50.892;4.702;2022-08-19T08:28:34;6.27;;;3.40;;
30247;SDS011;17063;50.892;4.702;2022-08-19T08:31:01;6.07;;;3.50;;
30247;SDS011;17063;50.892;4.702;2022-08-19T08:33:35;6.57;;;3.63;;
30247;SDS011;17063;50.892;4.702;2022-08-19T08:36:06;7.67;;;3.37;;
30247;SDS011;17063;50.892;4.702;2022-08-19T08:38:33;7.33;;;3.53;;
30247;SDS011;17063;50.892;4.702;2022-08-19T08:41:09;5.70;;;3.60;;
30247;SDS011;17063;50.892;4.702;2022-08-19T08:43:47;5.87;;;3.60;;
30247;SDS011;17063;50.892;4.702;2022-08-19T08:46:34;11.53;;;3.60;;
30247;SDS011;17063;50.892;4.702;2022-08-19T08:49:13;6.93;;;3.70;;
30247;SDS011;17063;50.892;4.702;2022-08-19T08:52:52;5.07;;;3.23;;
30247;SDS011;17063;50.892;4.702;2022-08-19T08:55:07;4.47;;;3.60;;
30247;SDS011;17063;50.892;4.702;2022-08-19T09:02:55;7.40;;;3.57;;
30247;SDS011;17063;50.892;4.702;2022-08-19T09:05:26;5.83;;;3.43;;
30247;SDS011;17063;50.892;4.702;2022-08-19T09:08:17;4.90;;;3.37;;
30247;SDS011;17063;50.892;4.702;2022-08-19T09:10:51;6.37;;;3.90;;
30247;SDS011;17063;50.892;4.702;2022-08-19T09:16:00;7.10;;;3.20;;
30247;SDS011;17063;50.892;4.702;2022-08-19T09:18:48;6.37;;;3.23;;
30247;SDS011;17063;50.892;4.702;2022-08-19T09:21:23;4.23;;;3.30;;
30247;SDS011;17063;50.892;4.702;2022-08-19T09:24:00;6.47;;;3.47;;
30247;SDS011;17063;50.892;4.702;2022-08-19T09:26:29;3.90;;;2.93;;
30247;SDS011;17063;50.892;4.702;2022-08-19T09:29:14;6.43;;;3.00;;
30247;SDS011;17063;50.892;4.702;2022-08-19T09:31:43;4.00;;;3.00;;
30247;SDS011;17063;50.892;4.702;2022-08-19T09:34:10;5.50;;;3.00;;
30247;SDS011;17063;50.892;4.702;2022-08-19T09:36:48;6.33;;;3.20;;
30247;SDS011;17063;50.892;4.702;2022-08-19T09:39:28;6.50;;;3.10;;
30247;SDS011;17063;50.892;4.702;2022-08-19T09:42:04;5.03;;;2.57;;
30247;SDS011;17063;50.892;4.702;2022-08-19T09:44:41;7.97;;;2.83;;
30247;SDS011;17063;50.892;4.702;2022-08-19T09:47:09;7.07;;;2.73;;
30247;SDS011;17063;50.892;4.702;2022-08-19T09:49:38;6.00;;;2.33;;
30247;SDS011;17063;50.892;4.702;2022-08-19T09:52:07;5.77;;;2.93;;
30247;SDS011;17063;50.892;4.702;2022-08-19T09:54:39;4.07;;;3.10;;
30247;SDS011;17063;50.892;4.702;2022-08-19T09:57:09;3.63;;;2.77;;
30247;SDS011;17063;50.892;4.702;2022-08-19T09:59:36;5.20;;;3.10;;
30247;SDS011;17063;50.892;4.702;2022-08-19T10:02:03;6.87;;;3.03;;
30247;SDS011;17063;50.892;4.702;2022-08-19T10:04:36;5.30;;;3.30;;
30247;SDS011;17063;50.892;4.702;2022-08-19T10:07:21;3.23;;;2.47;;
30247;SDS011;17063;50.892;4.702;2022-08-19T10:10:02;4.27;;;2.87;;
30247;SDS011;17063;50.892;4.702;2022-08-19T10:12:33;5.07;;;2.83;;
30247;SDS011;17063;50.892;4.702;2022-08-19T10:15:04;5.20;;;3.60;;
30247;SDS011;17063;50.892;4.702;2022-08-19T10:17:32;5.50;;;3.10;;
30247;SDS011;17063;50.892;4.702;2022-08-19T10:20:02;4.70;;;2.97;;
30247;SDS011;17063;50.892;4.702;2022-08-19T10:22:30;5.53;;;3.60;;
30247;SDS011;17063;50.892;4.702;2022-08-19T10:24:57;4.30;;;3.30;;
30247;SDS011;17063;50.892;4.702;2022-08-19T10:27:24;5.40;;;3.43;;
30247;SDS011;17063;50.892;4.702;2022-08-19T10:29:51;3.80;;;3.13;;
30247;SDS011;17063;50.892;4.702;2022-08-19T10:32:20;4.17;;;2.87;;
30247;SDS011;17063;50.892;4.702;2022-08-19T10:34:59;3.60;;;2.80;;
30247;SDS011;17063;50.892;4.702;2022-08-19T10:37:27;5.80;;;3.47;;
30247;SDS011;17063;50.892;4.702;2022-08-19T10:39:56;5.97;;;3.50;;
30247;SDS011;17063;50.892;4.702;2022-08-19T10:42:23;5.43;;;3.10;;
30247;SDS011;17063;50.892;4.702;2022-08-19T10:44:53;5.63;;;3.37;;
30247;SDS011;17063;50.892;4.702;2022-08-19T10:47:20;3.97;;;3.17;;
30247;SDS011;17063;50.892;4.702;2022-08-19T10:49:52;4.07;;;2.60;;
30247;SDS011;17063;50.892;4.702;2022-08-19T10:52:39;4.00;;;2.93;;
30247;SDS011;17063;50.892;4.702;2022-08-19T10:55:17;4.47;;;3.40;;
30247;SDS011;17063;50.892;4.702;2022-08-19T10:58:13;10.77;;;3.40;;
30247;SDS011;17063;50.892;4.702;2022-08-19T11:00:42;5.23;;;3.17;;
30247;SDS011;17063;50.892;4.702;2022-08-19T11:03:12;8.60;;;2.80;;
30247;SDS011;17063;50.892;4.702;2022-08-19T11:05:38;4.97;;;3.07;;
30247;SDS011;17063;50.892;4.702;2022-08-19T11:08:06;4.43;;;2.90;;
30247;SDS011;17063;50.892;4.702;2022-08-19T11:10:49;3.20;;;2.90;;
30247;SDS011;17063;50.892;4.702;2022-08-19T11:13:17;5.53;;;2.70;;
30247;SDS011;17063;50.892;4.702;2022-08-19T11:15:43;3.80;;;2.83;;
30247;SDS011;17063;50.892;4.702;2022-08-19T11:18:12;5.53;;;2.43;;
30247;SDS011;17063;50.892;4.702;2022-08-19T11:20:39;5.90;;;2.43;;
30247;SDS011;17063;50.892;4.702;2022-08-19T11:23:06;3.90;;;2.57;;
30247;SDS011;17063;50.892;4.702;2022-08-19T11:25:33;5.27;;;2.80;;
30247;SDS011;17063;50.892;4.702;2022-08-19T11:28:00;5.17;;;2.53;;
30247;SDS011;17063;50.892;4.702;2022-08-19T11:30:27;2.63;;;2.03;;
30247;SDS011;17063;50.892;4.702;2022-08-19T11:32:54;3.97;;;2.00;;
30247;SDS011;17063;50.892;4.702;2022-08-19T11:35:21;4.03;;;2.30;;
30247;SDS011;17063;50.892;4.702;2022-08-19T11:37:49;6.50;;;2.23;;
30247;SDS011;17063;50.892;4.702;2022-08-19T11:40:16;2.80;;;2.27;;
30247;SDS011;17063;50.892;4.702;2022-08-19T11:42:47;2.70;;;2.30;;
30247;SDS011;17063;50.892;4.702;2022-08-19T11:45:23;2.73;;;2.37;;
30247;SDS011;17063;50.892;4.702;2022-08-19T11:47:51;4.37;;;3.03;;
30247;SDS011;17063;50.892;4.702;2022-08-19T11:50:19;5.43;;;3.33;;
30247;SDS011;17063;50.892;4.702;2022-08-19T11:52:46;2.90;;;2.60;;
30247;SDS011;17063;50.892;4.702;2022-08-19T11:55:13;5.60;;;3.63;;
30247;SDS011;17063;50.892;4.702;2022-08-19T11:57:40;4.20;;;3.07;;
30247;SDS011;17063;50.892;4.702;2022-08-19T12:00:08;5.53;;;3.30;;
30247;SDS011;17063;50.892;4.702;2022-08-19T12:02:39;3.97;;;3.37;;
30247;SDS011;17063;50.892;4.702;2022-08-19T12:05:06;5.07;;;3.47;;
30247;SDS011;17063;50.892;4.702;2022-08-19T12:07:38;5.17;;;4.00;;
30247;SDS011;17063;50.892;4.702;2022-08-19T12:10:07;6.07;;;3.80;;
30247;SDS011;17063;50.892;4.702;2022-08-19T12:12:36;10.33;;;3.90;;
30247;SDS011;17063;50.892;4.702;2022-08-19T12:15:06;5.30;;;3.40;;
30247;SDS011;17063;50.892;4.702;2022-08-19T12:17:34;6.50;;;4.13;;
30247;SDS011;17063;50.892;4.702;2022-08-19T12:20:00;6.77;;;4.33;;
30247;SDS011;17063;50.892;4.702;2022-08-19T12:22:27;5.87;;;4.33;;
30247;SDS011;17063;50.892;4.702;2022-08-19T12:24:54;5.73;;;4.53;;
30247;SDS011;17063;50.892;4.702;2022-08-19T12:27:21;5.70;;;4.43;;
30247;SDS011;17063;50.892;4.702;2022-08-19T12:30:06;8.80;;;4.23;;
30247;SDS011;17063;50.892;4.702;2022-08-19T12:32:35;7.03;;;5.03;;
30247;SDS011;17063;50.892;4.702;2022-08-19T12:35:06;6.63;;;5.10;;
30247;SDS011;17063;50.892;4.702;2022-08-19T12:37:34;11.00;;;5.50;;
30247;SDS011;17063;50.892;4.702;2022-08-19T12:40:01;10.23;;;4.60;;
30247;SDS011;17063;50.892;4.702;2022-08-19T12:42:29;7.43;;;4.40;;
30247;SDS011;17063;50.892;4.702;2022-08-19T12:44:56;5.17;;;4.47;;
30247;SDS011;17063;50.892;4.702;2022-08-19T12:47:23;8.77;;;5.30;;
30247;SDS011;17063;50.892;4.702;2022-08-19T12:49:57;5.83;;;4.67;;
30247;SDS011;17063;50.892;4.702;2022-08-19T12:52:32;5.57;;;4.70;;
30247;SDS011;17063;50.892;4.702;2022-08-19T12:54:59;5.53;;;4.63;;
30247;SDS011;17063;50.892;4.702;2022-08-19T12:57:28;6.23;;;4.17;;
30247;SDS011;17063;50.892;4.702;2022-08-19T13:00:06;7.13;;;4.70;;
30247;SDS011;17063;50.892;4.702;2022-08-19T13:02:38;6.30;;;4.10;;
30247;SDS011;17063;50.892;4.702;2022-08-19T13:05:13;5.63;;;4.30;;
30247;SDS011;17063;50.892;4.702;2022-08-19T13:07:42;4.90;;;3.60;;
30247;SDS011;17063;50.892;4.702;2022-08-19T13:10:11;5.00;;;3.83;;
30247;SDS011;17063;50.892;4.702;2022-08-19T13:12:39;5.87;;;3.60;;
30247;SDS011;17063;50.892;4.702;2022-08-19T13:15:07;4.93;;;3.57;;
30247;SDS011;17063;50.892;4.702;2022-08-19T13:17:36;4.63;;;4.10;;
30247;SDS011;17063;50.892;4.702;2022-08-19T13:20:04;3.87;;;3.47;;
30247;SDS011;17063;50.892;4.702;2022-08-19T13:22:34;5.33;;;3.60;;
30247;SDS011;17063;50.892;4.702;2022-08-19T13:25:07;3.77;;;3.07;;
30247;SDS011;17063;50.892;4.702;2022-08-19T13:27:35;5.17;;;3.10;;
30247;SDS011;17063;50.892;4.702;2022-08-19T13:30:03;5.73;;;3.47;;
30247;SDS011;17063;50.892;4.702;2022-08-19T13:32:49;4.20;;;3.07;;
30247;SDS011;17063;50.892;4.702;2022-08-19T13:35:34;4.30;;;2.80;;
30247;SDS011;17063;50.892;4.702;2022-08-19T13:38:01;4.77;;;3.00;;
30247;SDS011;17063;50.892;4.702;2022-08-19T13:40:34;5.00;;;3.10;;
30247;SDS011;17063;50.892;4.702;2022-08-19T13:43:08;5.07;;;3.20;;
30247;SDS011;17063;50.892;4.702;2022-08-19T13:45:48;2.50;;;2.20;;
30247;SDS011;17063;50.892;4.702;2022-08-19T13:48:21;2.70;;;2.50;;
30247;SDS011;17063;50.892;4.702;2022-08-19T13:50:51;2.40;;;2.20;;
30247;SDS011;17063;50.892;4.702;2022-08-19T13:53:17;4.00;;;2.10;;
30247;SDS011;17063;50.892;4.702;2022-08-19T13:55:44;4.27;;;2.70;;
30247;SDS011;17063;50.892;4.702;2022-08-19T13:58:11;10.93;;;2.47;;
30247;SDS011;17063;50.892;4.702;2022-08-19T14:00:40;2.00;;;1.80;;
30247;SDS011;17063;50.892;4.702;2022-08-19T14:03:09;3.53;;;1.93;;
30247;SDS011;17063;50.892;4.702;2022-08-19T14:05:36;1.73;;;1.53;;
30247;SDS011;17063;50.892;4.702;2022-08-19T14:08:03;1.50;;;1.40;;
30247;SDS011;17063;50.892;4.702;2022-08-19T14:10:30;3.33;;;1.30;;
30247;SDS011;17063;50.892;4.702;2022-08-19T14:12:59;2.00;;;1.33;;
30247;SDS011;17063;50.892;4.702;2022-08-19T14:15:30;3.93;;;1.40;;
30247;SDS011;17063;50.892;4.702;2022-08-19T14:17:57;1.30;;;1.20;;
30247;SDS011;17063;50.892;4.702;2022-08-19T14:20:25;2.20;;;1.40;;
30247;SDS011;17063;50.892;4.702;2022-08-19T14:22:52;1.40;;;1.30;;
30247;SDS011;17063;50.892;4.702;2022-08-19T14:25:21;1.87;;;1.20;;
30247;SDS011;17063;50.892;4.702;2022-08-19T14:27:49;3.37;;;1.20;;
30247;SDS011;17063;50.892;4.702;2022-08-19T14:30:20;1.47;;;1.30;;
30247;SDS011;17063;50.892;4.702;2022-08-19T14:32:49;1.17;;;1.00;;
30247;SDS011;17063;50.892;4.702;2022-08-19T14:35:16;1.00;;;1.00;;
30247;SDS011;17063;50.892;4.702;2022-08-19T14:37:44;3.00;;;0.93;;
30247;SDS011;17063;50.892;4.702;2022-08-19T14:40:14;1.10;;;1.10;;
30247;SDS011;17063;50.892;4.702;2022-08-19T14:42:43;2.53;;;1.10;;
30247;SDS011;17063;50.892;4.702;2022-08-19T14:45:18;1.20;;;0.80;;
30247;SDS011;17063;50.892;4.702;2022-08-19T14:47:46;2.63;;;1.00;;
30247;SDS011;17063;50.892;4.702;2022-08-19T14:50:26;4.00;;;1.00;;
30247;SDS011;17063;50.892;4.702;2022-08-19T14:52:58;4.13;;;1.47;;
30247;SDS011;17063;50.892;4.702;2022-08-19T14:55:42;1.30;;;1.20;;
30247;SDS011;17063;50.892;4.702;2022-08-19T14:58:12;2.77;;;1.33;;
30247;SDS011;17063;50.892;4.702;2022-08-19T15:00:59;3.73;;;1.20;;
30247;SDS011;17063;50.892;4.702;2022-08-19T15:03:27;1.60;;;1.30;;
30247;SDS011;17063;50.892;4.702;2022-08-19T15:06:13;2.37;;;1.13;;
30247;SDS011;17063;50.892;4.702;2022-08-19T15:08:57;1.80;;;1.20;;
30247;SDS011;17063;50.892;4.702;2022-08-19T15:11:33;3.70;;;1.43;;